Time;durP1;ratioP1;P1;durP2;ratioP2;P2;SDS_P1;SDS_P2;PMS_P1;PMS_P2;Temp;Humidity;BMP_temperature;BMP_pressure;BME280_temperature;BME280_humidity;BME280_pressure;Samples;Min_cycle;Max_cycle;Signal;HPM_P1;HPM_P2
2024/01/09 00:00:44;;;;;;;;;;;;;;;-4.85;99.67;103341.78;5029183;28;20293;-69
2024/01/09 00:03:09;;;;;;;;;;;;;;;-4.79;99.31;103325.34;5039858;28;19921;-69
2024/01/09 00:05:35;;;;;;;;;;;;;;;-4.79;99.46;103327.97;5037915;28;19964;-69
2024/01/09 00:08:00;;;;;;;;;;;;;;;-4.85;99.93;103320.81;5036964;28;20015;-69
2024/01/09 00:10:25;;;;;;;;;;;;;;;-4.84;98.39;103324.34;5033551;28;19920;-69
2024/01/09 00:12:50;;;;;;;;;;;;;;;-4.84;99.24;103332.22;5036360;28;20012;-69
2024/01/09 00:15:16;;;;;;;;;;;;;;;-4.88;99.29;103332.97;5035350;28;20011;-69
2024/01/09 00:17:42;;;;;;;;;;;;;;;-4.93;98.92;103339.81;5036300;28;19959;-69
2024/01/09 00:20:07;;;;;;;;;;;;;;;-4.91;99.26;103327.63;5034206;28;19921;-69
2024/01/09 00:22:32;;;;;;;;;;;;;;;-4.92;99.03;103331.09;5034719;28;19962;-69
2024/01/09 00:24:57;;;;;;;;;;;;;;;-4.93;99.37;103332.84;5036397;28;19924;-69
2024/01/09 00:27:23;;;;;;;;;;;;;;;-4.90;99.00;103339.91;5036715;28;19927;-69
2024/01/09 00:29:48;;;;;;;;;;;;;;;-4.96;99.63;103338.00;5035403;28;19935;-69
2024/01/09 00:32:13;;;;;;;;;;;;;;;-4.91;99.82;103325.03;5038128;28;19943;-69
2024/01/09 00:34:40;;;;;;;;;;;;;;;-4.99;99.73;103330.94;5036042;28;19924;-69
2024/01/09 00:37:05;;;;;;;;;;;;;;;-5.01;99.58;103337.84;5032150;28;19921;-69
2024/01/09 00:39:30;;;;;;;;;;;;;;;-4.96;99.68;103335.38;5036664;28;20348;-69
2024/01/09 00:41:55;;;;;;;;;;;;;;;-4.94;100.00;103338.03;5036217;28;19927;-70
2024/01/09 00:44:20;;;;;;;;;;;;;;;-5.05;100.00;103327.25;5035238;28;19983;-69
2024/01/09 00:46:46;;;;;;;;;;;;;;;-5.04;100.00;103327.31;5037551;28;20050;-69
2024/01/09 00:49:11;;;;;;;;;;;;;;;-5.01;100.00;103330.00;5034990;28;20281;-69
2024/01/09 00:51:36;;;;;;;;;;;;;;;-5.09;100.00;103325.41;5034599;28;20294;-69
2024/01/09 00:54:02;;;;;;;;;;;;;;;-5.10;100.00;103332.38;5032313;28;20398;-68
2024/01/09 00:56:28;;;;;;;;;;;;;;;-5.25;100.00;103297.88;5035908;28;20382;-69
2024/01/09 00:58:53;;;;;;;;;;;;;;;-5.13;100.00;103320.06;5027243;28;19957;-69
2024/01/09 01:01:18;;;;;;;;;;;;;;;-5.13;100.00;103324.44;5037945;28;19921;-69
2024/01/09 01:03:43;;;;;;;;;;;;;;;-5.18;100.00;103323.41;5032802;28;19963;-68
2024/01/09 01:06:08;;;;;;;;;;;;;;;-5.14;100.00;103328.78;5036167;28;20263;-68
2024/01/09 01:08:34;;;;;;;;;;;;;;;-5.19;100.00;103317.31;5033647;28;19921;-68
2024/01/09 01:11:00;;;;;;;;;;;;;;;-5.16;100.00;103319.97;5035180;28;19990;-68
2024/01/09 01:13:25;;;;;;;;;;;;;;;-5.15;100.00;103318.25;5031573;28;20416;-69
2024/01/09 01:15:50;;;;;;;;;;;;;;;-5.21;100.00;103318.09;5036586;28;19933;-69
2024/01/09 01:18:15;;;;;;;;;;;;;;;-5.21;100.00;103320.72;5035063;28;20010;-69
2024/01/09 01:20:41;;;;;;;;;;;;;;;-5.22;100.00;103322.47;5034445;28;19920;-69
2024/01/09 01:23:06;;;;;;;;;;;;;;;-5.24;100.00;103323.25;5033646;28;19952;-68
2024/01/09 01:25:31;;;;;;;;;;;;;;;-5.27;100.00;103324.06;5034933;28;19917;-68
2024/01/09 01:27:57;;;;;;;;;;;;;;;-5.27;100.00;103327.53;5036583;28;20007;-68
2024/01/09 01:30:22;;;;;;;;;;;;;;;-5.32;100.00;103320.41;5033751;28;19932;-68
2024/01/09 01:32:47;;;;;;;;;;;;;;;-5.33;100.00;103332.63;5037330;28;20243;-69
2024/01/09 01:35:12;;;;;;;;;;;;;;;-5.37;100.00;103333.38;5035193;28;19920;-69
2024/01/09 01:37:38;;;;;;;;;;;;;;;-5.30;100.00;103334.44;5033928;28;19920;-69
2024/01/09 01:40:03;;;;;;;;;;;;;;;-5.43;100.00;103326.22;5029957;28;20012;-68
2024/01/09 01:42:28;;;;;;;;;;;;;;;-5.50;100.00;103332.13;5035927;28;19944;-69
2024/01/09 01:44:54;;;;;;;;;;;;;;;-5.47;100.00;103340.09;5034527;28;20001;-69
2024/01/09 01:47:19;;;;;;;;;;;;;;;-5.39;100.00;103323.69;5036979;28;20018;-68
2024/01/09 01:49:44;;;;;;;;;;;;;;;-5.37;100.00;103324.63;5033502;28;20381;-69
2024/01/09 01:52:09;;;;;;;;;;;;;;;-5.39;100.00;103321.06;5031247;28;20098;-68
2024/01/09 01:54:35;;;;;;;;;;;;;;;-5.42;100.00;103317.50;5031785;28;20020;-68
2024/01/09 01:57:00;;;;;;;;;;;;;;;-5.42;100.00;103330.59;5035299;28;20613;-68
2024/01/09 01:59:25;;;;;;;;;;;;;;;-5.39;100.00;103326.31;5012382;28;19921;-68
2024/01/09 02:01:51;;;;;;;;;;;;;;;-5.44;100.00;103310.47;5034195;28;19972;-68
2024/01/09 02:04:16;;;;;;;;;;;;;;;-5.47;100.00;103327.00;5032170;28;19925;-69
2024/01/09 02:06:41;;;;;;;;;;;;;;;-5.52;100.00;103311.97;5010415;28;19921;-68
2024/01/09 02:09:07;;;;;;;;;;;;;;;-5.43;100.00;103320.97;5035896;28;19921;-69
2024/01/09 02:11:32;;;;;;;;;;;;;;;-5.47;100.00;103315.63;5033490;28;19971;-69
2024/01/09 02:13:57;;;;;;;;;;;;;;;-5.61;100.00;103283.78;5033907;28;20023;-68
2024/01/09 02:16:22;;;;;;;;;;;;;;;-5.53;100.00;103315.44;5034193;28;20015;-69
2024/01/09 02:18:48;;;;;;;;;;;;;;;-5.55;100.00;103320.63;5034613;28;20023;-68
2024/01/09 02:21:13;;;;;;;;;;;;;;;-5.58;100.00;103316.22;5015104;28;19921;-69
2024/01/09 02:23:39;;;;;;;;;;;;;;;-5.55;100.00;103307.53;5032692;28;19927;-68
2024/01/09 02:26:04;;;;;;;;;;;;;;;-5.58;100.00;103308.34;5034471;28;19983;-68
2024/01/09 02:28:34;;;;;;;;;;;;;;;-5.60;100.00;103310.03;5029416;28;19963;-69
2024/01/09 02:30:59;;;;;;;;;;;;;;;-5.61;100.00;103308.25;5033490;28;19916;-68
2024/01/09 02:33:24;;;;;;;;;;;;;;;-5.56;100.00;103300.53;5034581;28;19920;-68
2024/01/09 02:35:49;;;;;;;;;;;;;;;-5.57;100.00;103307.50;5030135;28;19966;-68
2024/01/09 02:38:15;;;;;;;;;;;;;;;-5.65;100.00;103301.16;5036052;28;20331;-68
2024/01/09 02:40:40;;;;;;;;;;;;;;;-5.63;100.00;103307.31;5014837;28;20417;-69
2024/01/09 02:43:05;;;;;;;;;;;;;;;-5.62;100.00;103301.25;5029822;28;20389;-68
2024/01/09 02:45:30;;;;;;;;;;;;;;;-5.63;100.00;103311.66;5032560;28;19935;-69
2024/01/09 02:47:56;;;;;;;;;;;;;;;-5.62;100.00;103314.34;5034985;28;19921;-69
2024/01/09 02:50:21;;;;;;;;;;;;;;;-5.61;100.00;103309.97;5035616;28;19921;-68
2024/01/09 02:52:46;;;;;;;;;;;;;;;-5.67;100.00;103308.06;5033280;28;20035;-69
2024/01/09 02:55:12;;;;;;;;;;;;;;;-5.67;100.00;103313.31;5031469;28;19962;-69
2024/01/09 02:57:40;;;;;;;;;;;;;;;-5.70;100.00;103307.09;5034573;28;19971;-68
2024/01/09 03:00:06;;;;;;;;;;;;;;;-5.68;100.00;103314.16;5032461;28;19921;-69
2024/01/09 03:02:31;;;;;;;;;;;;;;;-5.67;100.00;103309.78;5032453;28;19964;-69
2024/01/09 03:04:56;;;;;;;;;;;;;;;-5.67;100.00;103309.78;5034300;28;20012;-69
2024/01/09 03:07:21;;;;;;;;;;;;;;;-5.65;100.00;103305.50;5030628;28;19931;-69
2024/01/09 03:09:47;;;;;;;;;;;;;;;-5.69;100.00;103312.38;5031182;28;19925;-69
2024/01/09 03:12:12;;;;;;;;;;;;;;;-5.72;100.00;103310.56;5027069;28;19921;-69
2024/01/09 03:14:37;;;;;;;;;;;;;;;-5.73;100.00;103310.50;5032289;28;19920;-69
2024/01/09 03:17:04;;;;;;;;;;;;;;;-5.72;100.00;103310.56;5031055;28;19963;-69
2024/01/09 03:19:29;;;;;;;;;;;;;;;-5.75;100.00;103310.47;5032901;28;19948;-69
2024/01/09 03:21:55;;;;;;;;;;;;;;;-5.81;100.00;103307.66;5031431;28;19921;-69
2024/01/09 03:24:20;;;;;;;;;;;;;;;-5.85;100.00;103316.25;5032544;28;19960;-69
2024/01/09 03:26:45;;;;;;;;;;;;;;;-5.87;100.00;103318.84;5028677;28;20133;-69
2024/01/09 03:29:10;;;;;;;;;;;;;;;-5.82;100.00;103310.22;5031272;28;19931;-69
2024/01/09 03:31:36;;;;;;;;;;;;;;;-5.83;100.00;103317.19;5028151;28;19925;-69
2024/01/09 03:34:01;;;;;;;;;;;;;;;-5.81;100.00;103312.00;5028894;28;19935;-69
2024/01/09 03:36:26;;;;;;;;;;;;;;;-5.92;100.00;103325.66;5034297;28;19935;-69
2024/01/09 03:38:52;;;;;;;;;;;;;;;-5.89;100.00;103307.44;5018781;28;19924;-69
2024/01/09 03:41:17;;;;;;;;;;;;;;;-5.89;100.00;103310.06;5033318;28;20653;-69
2024/01/09 03:43:42;;;;;;;;;;;;;;;-5.90;100.00;103318.75;5028955;28;19928;-69
2024/01/09 03:46:08;;;;;;;;;;;;;;;-5.87;100.00;103305.75;5036120;28;19920;-69
2024/01/09 03:48:33;;;;;;;;;;;;;;;-5.84;100.00;103312.81;5027642;28;19923;-69
2024/01/09 03:50:58;;;;;;;;;;;;;;;-5.83;100.00;103305.84;5035597;28;19928;-69
2024/01/09 03:53:23;;;;;;;;;;;;;;;-5.89;100.00;103314.38;5030892;28;19917;-69
2024/01/09 03:55:48;;;;;;;;;;;;;;;-5.86;100.00;103309.25;5023478;28;19921;-69
2024/01/09 03:58:14;;;;;;;;;;;;;;;-5.90;100.00;103302.13;5037104;28;19960;-69
2024/01/09 04:00:39;;;;;;;;;;;;;;;-5.87;100.00;103303.13;5035113;28;20015;-69
2024/01/09 04:03:05;;;;;;;;;;;;;;;-5.82;100.00;103304.97;5037400;28;19923;-69
2024/01/09 04:05:30;;;;;;;;;;;;;;;-5.89;100.00;103309.16;5049166;28;19917;-69
2024/01/09 04:07:55;;;;;;;;;;;;;;;-5.93;100.00;103302.03;5015359;28;20316;-69
2024/01/09 04:10:20;;;;;;;;;;;;;;;-5.88;100.00;103298.75;5021067;28;19925;-69
2024/01/09 04:12:46;;;;;;;;;;;;;;;-5.95;100.00;103294.16;5026322;28;19921;-69
2024/01/09 04:15:11;;;;;;;;;;;;;;;-5.90;100.00;103296.91;5034985;28;19924;-69
2024/01/09 04:17:36;;;;;;;;;;;;;;;-5.93;100.00;103304.66;5027499;28;19920;-69
2024/01/09 04:20:03;;;;;;;;;;;;;;;-5.93;100.00;103305.56;5035883;28;20031;-69
2024/01/09 04:22:28;;;;;;;;;;;;;;;-5.91;100.00;103302.97;5036167;28;19924;-69
2024/01/09 04:24:53;;;;;;;;;;;;;;;-5.95;100.00;103299.38;5031267;28;20287;-69
2024/01/09 04:27:18;;;;;;;;;;;;;;;-5.95;100.00;103301.09;5035189;28;20327;-70
2024/01/09 04:29:44;;;;;;;;;;;;;;;-5.95;100.00;103302.00;5032670;28;19972;-70
2024/01/09 04:32:09;;;;;;;;;;;;;;;-5.96;100.00;103300.22;5035317;28;20039;-69
2024/01/09 04:34:36;;;;;;;;;;;;;;;-5.96;100.00;103297.63;5029979;28;19917;-69
2024/01/09 04:37:01;;;;;;;;;;;;;;;-5.94;100.00;103295.94;5026885;28;19916;-70
2024/01/09 04:39:26;;;;;;;;;;;;;;;-5.92;100.00;103293.34;5035565;28;19917;-70
2024/01/09 04:41:51;;;;;;;;;;;;;;;-5.98;100.00;103285.34;5032032;28;20074;-70
2024/01/09 04:44:16;;;;;;;;;;;;;;;-5.97;100.00;103293.22;5013935;28;19927;-70
2024/01/09 04:46:42;;;;;;;;;;;;;;;-5.94;100.00;103289.78;5033909;28;19964;-70
2024/01/09 04:49:07;;;;;;;;;;;;;;;-6.05;100.00;103285.19;5035807;28;20055;-69
2024/01/09 04:51:32;;;;;;;;;;;;;;;-6.01;100.00;103282.66;5032085;28;19925;-70
2024/01/09 04:53:57;;;;;;;;;;;;;;;-6.01;100.00;103280.91;5033417;28;20394;-69
2024/01/09 04:56:23;;;;;;;;;;;;;;;-5.97;100.00;103289.72;5030843;28;19955;-69
2024/01/09 04:58:53;;;;;;;;;;;;;;;-6.01;100.00;103293.13;5036464;28;19960;-69
2024/01/09 05:01:18;;;;;;;;;;;;;;;-6.06;100.00;103291.25;5033877;28;20038;-69
2024/01/09 05:03:46;;;;;;;;;;;;;;;-6.02;100.00;103300.06;5034736;28;20126;-70
2024/01/09 05:06:11;;;;;;;;;;;;;;;-6.07;100.00;103294.69;5028195;28;20406;-70
2024/01/09 05:08:37;;;;;;;;;;;;;;;-6.09;100.00;103287.66;5030151;28;19960;-69
2024/01/09 05:11:02;;;;;;;;;;;;;;;-6.11;100.00;103297.19;5029034;28;19960;-70
2024/01/09 05:13:28;;;;;;;;;;;;;;;-6.12;100.00;103288.44;5033833;28;20008;-70
2024/01/09 05:15:53;;;;;;;;;;;;;;;-6.16;100.00;103289.19;5032075;28;19929;-70
2024/01/09 05:18:18;;;;;;;;;;;;;;;-6.15;100.00;103288.34;5034686;28;19952;-69
2024/01/09 05:20:44;;;;;;;;;;;;;;;-6.15;100.00;103293.56;5036587;28;19924;-69
2024/01/09 05:23:09;;;;;;;;;;;;;;;-6.14;100.00;103295.34;5028850;28;19916;-70
2024/01/09 05:25:34;;;;;;;;;;;;;;;-6.13;100.00;103301.47;5026558;28;19925;-70
2024/01/09 05:27:59;;;;;;;;;;;;;;;-6.08;100.00;103295.53;5034068;28;19920;-70
2024/01/09 05:30:25;;;;;;;;;;;;;;;-6.12;100.00;103303.25;5029651;28;19994;-69
2024/01/09 05:32:50;;;;;;;;;;;;;;;-6.15;100.00;103303.16;5034204;28;20070;-69
2024/01/09 05:35:16;;;;;;;;;;;;;;;-6.21;100.00;103303.81;5034567;28;20467;-69
2024/01/09 05:37:41;;;;;;;;;;;;;;;-6.21;100.00;103304.72;5035279;28;20374;-70
2024/01/09 05:40:07;;;;;;;;;;;;;;;-6.29;100.00;103308.81;5029610;28;20429;-70
2024/01/09 05:42:32;;;;;;;;;;;;;;;-6.29;100.00;103300.09;5036627;28;20409;-70
2024/01/09 05:44:57;;;;;;;;;;;;;;;-6.27;100.00;103299.28;5026748;28;20460;-70
2024/01/09 05:47:23;;;;;;;;;;;;;;;-6.28;100.00;103297.53;5018367;28;20404;-70
2024/01/09 05:49:48;;;;;;;;;;;;;;;-6.27;100.00;103301.91;5033621;28;20403;-70
2024/01/09 05:52:13;;;;;;;;;;;;;;;-6.28;100.00;103300.13;5036562;28;20140;-70
2024/01/09 05:54:43;;;;;;;;;;;;;;;-6.28;100.00;103302.75;5032684;28;19948;-70
2024/01/09 05:57:08;;;;;;;;;;;;;;;-6.28;100.00;103294.03;5017824;28;20027;-70
2024/01/09 05:59:34;;;;;;;;;;;;;;;-6.21;100.00;103307.34;5030018;28;19927;-70
2024/01/09 06:01:59;;;;;;;;;;;;;;;-6.30;100.00;103303.56;5019256;28;19921;-70
2024/01/09 06:04:24;;;;;;;;;;;;;;;-6.26;100.00;103300.19;5036959;28;19921;-70
2024/01/09 06:06:49;;;;;;;;;;;;;;;-6.25;100.00;103297.63;5035193;28;20021;-70
2024/01/09 06:09:14;;;;;;;;;;;;;;;-6.31;100.00;103300.03;5035795;28;20034;-70
2024/01/09 06:11:40;;;;;;;;;;;;;;;-6.27;100.00;103296.69;5031479;28;19928;-70
2024/01/09 06:14:05;;;;;;;;;;;;;;;-6.27;100.00;103301.03;5037165;28;19924;-70
2024/01/09 06:16:30;;;;;;;;;;;;;;;-6.28;100.00;103299.25;5033836;28;20421;-70
2024/01/09 06:18:55;;;;;;;;;;;;;;;-6.28;100.00;103284.44;5022859;28;20584;-71
2024/01/09 06:21:21;;;;;;;;;;;;;;;-6.24;100.00;103298.53;5033022;28;20531;-70
2024/01/09 06:23:47;;;;;;;;;;;;;;;-6.30;100.00;103301.81;5028115;28;20690;-70
2024/01/09 06:26:12;;;;;;;;;;;;;;;-6.23;100.00;103305.53;5019468;28;19982;-70
2024/01/09 06:28:38;;;;;;;;;;;;;;;-6.25;100.00;103299.38;5037425;28;19924;-70
2024/01/09 06:31:03;;;;;;;;;;;;;;;-6.19;100.00;103310.00;5037344;28;20432;-70
2024/01/09 06:33:28;;;;;;;;;;;;;;;-6.30;100.00;103312.28;5029157;28;20011;-70
2024/01/09 06:35:53;;;;;;;;;;;;;;;-6.28;100.00;103304.50;5036143;28;19921;-71
2024/01/09 06:38:18;;;;;;;;;;;;;;;-6.29;100.00;103308.81;5036515;28;20350;-70
2024/01/09 06:40:44;;;;;;;;;;;;;;;-6.27;100.00;103314.13;5036725;28;20446;-70
2024/01/09 06:43:09;;;;;;;;;;;;;;;-6.30;100.00;103316.63;5032830;28;20421;-70
2024/01/09 06:45:34;;;;;;;;;;;;;;;-6.28;100.00;103309.72;5025661;28;20091;-70
2024/01/09 06:48:00;;;;;;;;;;;;;;;-6.31;100.00;103310.50;5032629;28;19921;-71
2024/01/09 06:50:25;;;;;;;;;;;;;;;-6.33;100.00;103312.16;5036214;28;19925;-71
2024/01/09 06:52:50;;;;;;;;;;;;;;;-6.32;100.00;103327.03;5037143;28;19936;-71
2024/01/09 06:55:15;;;;;;;;;;;;;;;-6.33;100.00;103330.47;5033145;28;19959;-70
2024/01/09 06:57:41;;;;;;;;;;;;;;;-6.37;100.00;103329.50;5028880;28;20012;-70
2024/01/09 07:00:06;;;;;;;;;;;;;;;-6.39;100.00;103331.16;5026050;28;20287;-70
2024/01/09 07:02:31;;;;;;;;;;;;;;;-6.37;100.00;103333.84;5033465;28;20454;-70
2024/01/09 07:04:57;;;;;;;;;;;;;;;-6.42;100.00;103338.03;5027916;28;19923;-70
2024/01/09 07:07:22;;;;;;;;;;;;;;;-6.41;100.00;103338.06;5031211;28;19924;-70
2024/01/09 07:09:47;;;;;;;;;;;;;;;-6.42;100.00;103341.53;5010004;28;19931;-71
2024/01/09 07:12:13;;;;;;;;;;;;;;;-6.50;100.00;103343.00;5018926;28;19921;-71
2024/01/09 07:14:38;;;;;;;;;;;;;;;-6.49;100.00;103336.94;5019697;28;20025;-71
2024/01/09 07:17:07;;;;;;;;;;;;;;;-6.49;100.00;103347.41;5032304;28;19931;-71
2024/01/09 07:19:33;;;;;;;;;;;;;;;-6.52;100.00;103347.28;5028979;28;19969;-71
2024/01/09 07:21:58;;;;;;;;;;;;;;;-6.55;100.00;103357.66;5034049;28;19921;-71
2024/01/09 07:24:23;;;;;;;;;;;;;;;-6.63;100.00;103347.81;5033297;28;19927;-71
2024/01/09 07:26:49;;;;;;;;;;;;;;;-6.57;100.00;103354.09;5031424;28;20016;-71
2024/01/09 07:29:16;;;;;;;;;;;;;;;-6.55;100.00;103352.41;5035614;28;20051;-71
2024/01/09 07:31:43;;;;;;;;;;;;;;;-6.60;100.00;103354.84;5032415;28;20309;-71
2024/01/09 07:34:08;;;;;;;;;;;;;;;-6.62;100.00;103361.78;5023993;28;19921;-71
2024/01/09 07:36:34;;;;;;;;;;;;;;;-6.57;100.00;103362.81;5033269;28;19913;-71
2024/01/09 07:38:59;;;;;;;;;;;;;;;-6.65;100.00;103356.44;5031433;28;20432;-71
2024/01/09 07:41:25;;;;;;;;;;;;;;;-6.78;100.00;103366.47;5036362;28;19927;-71
2024/01/09 07:43:50;;;;;;;;;;;;;;;-6.73;100.00;103376.19;5034625;28;19921;-71
2024/01/09 07:46:15;;;;;;;;;;;;;;;-6.65;100.00;103364.28;5034730;28;19921;-71
2024/01/09 07:48:41;;;;;;;;;;;;;;;-6.68;100.00;103372.00;5034395;28;20007;-71
2024/01/09 07:51:07;;;;;;;;;;;;;;;-6.69;100.00;103363.28;5037225;28;19947;-71
2024/01/09 07:53:32;;;;;;;;;;;;;;;-6.63;100.00;103368.72;5033516;28;19928;-71
2024/01/09 07:55:57;;;;;;;;;;;;;;;-6.60;100.00;103373.16;5038042;28;19920;-71
2024/01/09 07:58:22;;;;;;;;;;;;;;;-6.67;100.00;103365.94;5030013;28;20162;-71
2024/01/09 08:00:48;;;;;;;;;;;;;;;-6.70;100.00;103363.22;5035704;28;19925;-72
2024/01/09 08:03:16;;;;;;;;;;;;;;;-6.55;100.00;103378.56;5033394;28;19931;-71
2024/01/09 08:05:41;;;;;;;;;;;;;;;-6.48;100.00;103370.97;5038020;28;19932;-72
2024/01/09 08:08:06;;;;;;;;;;;;;;;-6.29;100.00;103382.03;5035880;28;19921;-72
2024/01/09 08:10:32;;;;;;;;;;;;;;;-6.25;100.00;103372.59;5034689;28;19932;-71
2024/01/09 08:12:57;;;;;;;;;;;;;;;-6.22;100.00;103375.28;5029998;28;19925;-72
2024/01/09 08:15:22;;;;;;;;;;;;;;;-6.13;100.00;103370.34;5034222;28;19931;-72
2024/01/09 08:17:47;;;;;;;;;;;;;;;-5.82;100.00;103376.53;5014761;28;20242;-72
2024/01/09 08:20:13;;;;;;;;;;;;;;;-5.66;100.00;103375.28;5026376;28;19921;-72
2024/01/09 08:22:38;;;;;;;;;;;;;;;-5.53;100.00;103380.88;5033217;28;19932;-72
2024/01/09 08:25:03;;;;;;;;;;;;;;;-5.54;100.00;103380.00;5029733;28;19980;-71
2024/01/09 08:27:28;;;;;;;;;;;;;;;-5.39;100.00;103382.19;5011041;28;20023;-71
2024/01/09 08:29:54;;;;;;;;;;;;;;;-5.14;100.00;103375.94;5038004;28;20019;-71
2024/01/09 08:32:19;;;;;;;;;;;;;;;-4.93;100.00;103380.03;5027096;28;20563;-71
2024/01/09 08:34:44;;;;;;;;;;;;;;;-4.83;100.00;103368.94;5029200;28;19925;-71
2024/01/09 08:37:10;;;;;;;;;;;;;;;-4.59;100.00;103378.28;5032640;28;20337;-72
2024/01/09 08:39:35;;;;;;;;;;;;;;;-4.72;100.00;103370.97;5038508;28;19920;-72
2024/01/09 08:42:00;;;;;;;;;;;;;;;-4.60;100.00;103371.28;5037246;28;19925;-72
2024/01/09 08:44:27;;;;;;;;;;;;;;;-4.42;100.00;103383.13;5033455;28;20351;-72
2024/01/09 08:46:52;;;;;;;;;;;;;;;-4.39;100.00;103388.44;5035322;28;19927;-72
2024/01/09 08:49:17;;;;;;;;;;;;;;;-4.31;100.00;103379.00;5038428;28;19921;-72
2024/01/09 08:51:42;;;;;;;;;;;;;;;-4.31;100.00;103376.38;5032578;28;19925;-72
2024/01/09 08:54:08;;;;;;;;;;;;;;;-4.38;100.00;103382.34;5028965;28;19931;-72
2024/01/09 08:56:33;;;;;;;;;;;;;;;-4.30;100.00;103380.78;5036983;28;19932;-72
2024/01/09 08:58:58;;;;;;;;;;;;;;;-4.26;100.00;103385.25;5027831;28;20572;-72
2024/01/09 09:01:24;;;;;;;;;;;;;;;-4.14;100.00;103395.19;5034844;28;20139;-72
2024/01/09 09:03:49;;;;;;;;;;;;;;;-4.22;100.00;103387.13;5035251;28;19917;-72
2024/01/09 09:06:14;;;;;;;;;;;;;;;-4.23;100.00;103400.19;5037931;28;19921;-72
2024/01/09 09:08:40;;;;;;;;;;;;;;;-4.33;100.00;103393.81;5030748;28;19921;-72
2024/01/09 09:11:08;;;;;;;;;;;;;;;-4.18;100.00;103393.31;5037797;28;19928;-72
2024/01/09 09:13:33;;;;;;;;;;;;;;;-4.23;100.00;103393.22;5038988;28;19920;-72
2024/01/09 09:15:58;;;;;;;;;;;;;;;-4.18;100.00;103397.69;5032853;28;20350;-72
2024/01/09 09:18:24;;;;;;;;;;;;;;;-4.16;100.00;103393.38;5039618;28;19921;-72
2024/01/09 09:20:49;;;;;;;;;;;;;;;-4.05;100.00;103402.38;5037801;28;20428;-72
2024/01/09 09:23:14;;;;;;;;;;;;;;;-4.02;99.90;103394.59;5040683;28;20271;-72
2024/01/09 09:25:39;;;;;;;;;;;;;;;-4.12;98.66;103403.09;5018928;28;20360;-73
2024/01/09 09:28:04;;;;;;;;;;;;;;;-4.22;98.03;103402.88;5038798;28;20359;-73
2024/01/09 09:30:30;;;;;;;;;;;;;;;-4.00;97.66;103395.50;5033323;28;20364;-73
2024/01/09 09:32:58;;;;;;;;;;;;;;;-3.61;98.11;103396.41;5032284;28;20287;-73
2024/01/09 09:35:23;;;;;;;;;;;;;;;-3.49;97.28;103401.97;5033611;28;19948;-72
2024/01/09 09:37:48;;;;;;;;;;;;;;;-3.52;96.04;103398.34;5032802;28;20019;-73
2024/01/09 09:40:13;;;;;;;;;;;;;;;-3.33;96.05;103403.19;5015738;28;19916;-73
2024/01/09 09:42:39;;;;;;;;;;;;;;;-2.96;94.79;103403.06;5037438;28;19940;-73
2024/01/09 09:45:05;;;;;;;;;;;;;;;-2.54;93.19;103360.84;5035740;28;19916;-73
2024/01/09 09:47:30;;;;;;;;;;;;;;;-1.61;91.05;103391.31;5035446;28;19927;-72
2024/01/09 09:49:55;;;;;;;;;;;;;;;-1.56;87.72;103387.88;5021572;28;19921;-73
2024/01/09 09:52:21;;;;;;;;;;;;;;;-1.41;86.23;103386.28;5037026;28;19927;-72
2024/01/09 09:54:46;;;;;;;;;;;;;;;-1.31;85.31;103387.28;5035524;28;19964;-72
2024/01/09 09:57:11;;;;;;;;;;;;;;;-1.10;84.46;103382.31;5032956;28;21028;-72
2024/01/09 09:59:37;;;;;;;;;;;;;;;-1.16;84.55;103383.97;5019736;28;20371;-72
2024/01/09 10:02:03;;;;;;;;;;;;;;;-1.18;82.47;103381.31;5034638;28;20069;-72
2024/01/09 10:04:31;;;;;;;;;;;;;;;-0.53;82.29;103375.88;5033320;28;19921;-72
2024/01/09 10:06:57;;;;;;;;;;;;;;;-0.24;79.17;103377.88;5036805;28;19928;-71
2024/01/09 10:09:23;;;;;;;;;;;;;;;0.44;77.09;103375.72;5039098;28;19924;-71
2024/01/09 10:11:49;;;;;;;;;;;;;;;0.86;74.56;103367.97;5030922;28;20822;-71
2024/01/09 10:14:14;;;;;;;;;;;;;;;1.44;72.58;103361.06;5028524;28;20379;-71
2024/01/09 10:16:49;;;;;;;;;;;;;;;1.08;71.21;103358.34;5030310;28;20001;-72
2024/01/09 10:19:15;;;;;;;;;;;;;;;1.04;69.96;103369.78;5019287;28;19999;-71
2024/01/09 10:21:41;;;;;;;;;;;;;;;0.89;68.29;103362.69;5026049;28;20283;-71
2024/01/09 10:24:06;;;;;;;;;;;;;;;0.79;68.90;103356.50;5019423;28;19917;-71
2024/01/09 10:26:31;;;;;;;;;;;;;;;1.29;68.00;103357.53;5025224;28;19924;-71
2024/01/09 10:28:58;;;;;;;;;;;;;;;1.29;66.89;103351.31;5038297;28;20283;-71
2024/01/09 10:31:23;;;;;;;;;;;;;;;1.69;65.95;103359.31;5020807;28;20019;-71
2024/01/09 10:33:48;;;;;;;;;;;;;;;2.00;63.13;103353.97;5027485;28;20007;-71
2024/01/09 10:36:14;;;;;;;;;;;;;;;2.91;63.26;103349.28;5031789;28;19974;-71
2024/01/09 10:38:39;;;;;;;;;;;;;;;2.95;62.16;103341.28;5032884;28;20412;-71
2024/01/09 10:41:14;;;;;;;;;;;;;;;3.18;60.33;103334.09;5021852;28;20337;-71
2024/01/09 10:43:39;;;;;;;;;;;;;;;2.91;60.06;103325.41;5030216;28;19920;-72
2024/01/09 10:46:05;;;;;;;;;;;;;;;3.44;59.23;103328.56;5033740;28;20095;-72
2024/01/09 10:48:30;;;;;;;;;;;;;;;3.56;57.50;103330.25;5018349;28;20335;-71
2024/01/09 10:50:55;;;;;;;;;;;;;;;3.30;55.69;103318.06;5036701;28;20701;-72
2024/01/09 10:53:20;;;;;;;;;;;;;;;3.39;55.24;103312.69;5035595;28;20295;-72
2024/01/09 10:55:45;;;;;;;;;;;;;;;3.68;55.30;103314.22;5032670;28;20359;-72
2024/01/09 10:58:11;;;;;;;;;;;;;;;2.89;52.43;103313.91;5034178;28;20013;-72
2024/01/09 11:00:36;;;;;;;;;;;;;;;3.41;54.10;103304.69;5034870;28;19925;-72
2024/01/09 11:03:01;;;;;;;;;;;;;;;3.26;52.60;103303.03;5033387;28;19925;-74
2024/01/09 11:05:26;;;;;;;;;;;;;;;3.05;53.94;103291.69;5025007;28;19921;-72
2024/01/09 11:07:51;;;;;;;;;;;;;;;3.70;52.85;103293.84;5025520;28;19917;-73
2024/01/09 11:10:17;;;;;;;;;;;;;;;4.02;52.70;103299.72;5030767;28;19924;-72
2024/01/09 11:12:43;;;;;;;;;;;;;;;3.67;51.59;103279.69;5000352;28;20004;-73
2024/01/09 11:15:15;;;;;;;;;;;;;;;3.86;50.83;103286.56;5030505;28;19931;-72
2024/01/09 11:17:40;;;;;;;;;;;;;;;4.02;50.54;103284.63;5030086;28;19955;-72
2024/01/09 11:20:09;;;;;;;;;;;;;;;3.82;48.49;103291.94;5000975;28;20054;-72
2024/01/09 11:22:37;;;;;;;;;;;;;;;3.94;48.49;103285.63;5031091;28;19919;-72
2024/01/09 11:25:03;;;;;;;;;;;;;;;4.07;47.67;103284.59;5036357;28;19920;-72
2024/01/09 11:27:36;;;;;;;;;;;;;;;4.98;48.77;103269.19;5016360;28;19949;-72
2024/01/09 11:30:01;;;;;;;;;;;;;;;4.69;47.84;103267.84;5035320;28;20083;-72
2024/01/09 11:32:27;;;;;;;;;;;;;;;4.74;46.58;103268.66;5038349;28;19972;-72
2024/01/09 11:35:08;;;;;;;;;;;;;;;4.68;44.43;103273.19;5029982;28;19940;-72
2024/01/09 11:37:33;;;;;;;;;;;;;;;5.25;44.86;103275.91;5020840;28;19920;-72
2024/01/09 11:39:58;;;;;;;;;;;;;;;5.59;43.13;103273.53;5035762;28;19943;-72
2024/01/09 11:42:24;;;;;;;;;;;;;;;5.54;42.99;103273.63;5037861;28;19955;-72
2024/01/09 11:44:49;;;;;;;;;;;;;;;6.05;43.55;103274.50;5029230;28;19948;-72
2024/01/09 11:47:14;;;;;;;;;;;;;;;6.40;40.97;103273.78;5032980;28;20050;-73
2024/01/09 11:49:40;;;;;;;;;;;;;;;7.19;40.82;103276.47;5022749;28;20222;-72
2024/01/09 11:52:05;;;;;;;;;;;;;;;7.20;39.41;103272.88;5024624;28;19960;-71
2024/01/09 11:54:30;;;;;;;;;;;;;;;7.88;39.69;103272.91;5023896;28;20012;-71
2024/01/09 11:56:55;;;;;;;;;;;;;;;6.99;38.54;103271.63;5019311;28;19970;-72
2024/01/09 11:59:20;;;;;;;;;;;;;;;7.11;37.83;103276.66;5039333;28;20005;-73
2024/01/09 12:01:46;;;;;;;;;;;;;;;6.87;37.64;103262.09;5035976;28;20054;-73
2024/01/09 12:04:11;;;;;;;;;;;;;;;7.07;37.31;103263.41;5025961;28;20221;-72
2024/01/09 12:06:36;;;;;;;;;;;;;;;6.32;36.99;103261.53;5021896;28;20051;-72
2024/01/09 12:09:02;;;;;;;;;;;;;;;7.37;36.59;103266.25;5022297;28;19982;-71
2024/01/09 12:11:27;;;;;;;;;;;;;;;7.31;36.01;103270.81;5022122;28;20088;-74
2024/01/09 12:14:00;;;;;;;;;;;;;;;7.87;36.71;103260.47;5025514;28;20426;-71
2024/01/09 12:16:25;;;;;;;;;;;;;;;8.37;35.51;103273.34;5036095;28;19924;-71
2024/01/09 12:18:52;;;;;;;;;;;;;;;8.14;35.31;103268.63;5022535;28;19928;-72
2024/01/09 12:21:17;;;;;;;;;;;;;;;7.75;35.52;103259.91;5033933;28;20373;-71